createdAt,value
2019-03-08T00:00:14.391Z,6.67
2019-03-08T00:02:41.373Z,8.13
2019-03-08T00:05:09.369Z,4.40
2019-03-08T00:07:36.459Z,4.60
2019-03-08T00:10:03.613Z,6.50
2019-03-08T00:12:30.597Z,6.83
2019-03-08T00:14:57.572Z,4.87
2019-03-08T00:17:25.230Z,5.10
2019-03-08T00:19:52.178Z,5.93
2019-03-08T00:22:19.152Z,6.73
2019-03-08T00:24:47.628Z,5.07
2019-03-08T00:27:14.561Z,6.43
2019-03-08T00:29:42.613Z,4.97
2019-03-08T00:32:09.590Z,5.00
2019-03-08T00:34:36.568Z,7.07
2019-03-08T00:37:03.547Z,5.73
2019-03-08T00:39:30.530Z,6.60
2019-03-08T00:41:57.607Z,6.80
2019-03-08T00:44:24.627Z,5.33
2019-03-08T00:46:51.713Z,4.30
2019-03-08T00:49:18.645Z,6.17
2019-03-08T00:51:45.575Z,5.40
2019-03-08T00:54:12.504Z,4.57
2019-03-08T00:56:40.426Z,5.00
2019-03-08T00:59:07.378Z,9.70
2019-03-08T01:01:34.318Z,5.30
2019-03-08T01:04:01.333Z,4.70
2019-03-08T01:06:28.250Z,6.70
2019-03-08T01:08:55.188Z,5.57
2019-03-08T01:11:22.139Z,4.60
2019-03-08T01:13:49.127Z,4.83
2019-03-08T01:16:16.061Z,5.77
2019-03-08T01:18:43.013Z,6.10
2019-03-08T01:21:09.946Z,8.33
2019-03-08T01:23:36.903Z,4.43
2019-03-08T01:26:03.891Z,4.03
2019-03-08T01:31:10.334Z,9.60
2019-03-08T01:33:37.278Z,5.53
2019-03-08T01:36:04.193Z,4.20
2019-03-08T01:38:31.132Z,6.17
2019-03-08T01:40:58.118Z,4.90
2019-03-08T01:43:25.064Z,8.53
2019-03-08T01:45:52.045Z,6.83
2019-03-08T01:48:19.024Z,6.97
2019-03-08T01:50:45.968Z,6.93
2019-03-08T01:53:12.900Z,10.07
2019-03-08T01:55:39.837Z,12.57
2019-03-08T01:58:06.815Z,8.93
2019-03-08T02:00:33.770Z,8.00
2019-03-08T02:03:00.761Z,5.30
2019-03-08T02:05:27.721Z,3.63
2019-03-08T02:07:54.635Z,9.50
2019-03-08T02:10:21.527Z,4.13
2019-03-08T02:12:48.463Z,6.67
2019-03-08T02:15:15.478Z,4.53
2019-03-08T02:17:42.461Z,4.47
2019-03-08T02:20:11.466Z,4.93
2019-03-08T02:22:38.415Z,3.17
2019-03-08T02:25:05.469Z,5.13
2019-03-08T02:27:32.425Z,4.60
2019-03-08T02:29:59.418Z,4.80
2019-03-08T02:32:26.384Z,2.73
2019-03-08T02:34:53.300Z,6.43
2019-03-08T02:37:20.203Z,5.53
2019-03-08T02:39:47.638Z,3.40
2019-03-08T02:42:14.543Z,4.93
2019-03-08T02:44:41.458Z,6.67
2019-03-08T02:47:08.419Z,6.37
2019-03-08T02:49:35.337Z,5.57
2019-03-08T02:52:02.338Z,5.33
2019-03-08T02:54:29.301Z,5.70
2019-03-08T02:56:56.223Z,9.93
2019-03-08T02:59:23.213Z,8.70
2019-03-08T03:01:50.143Z,14.87
2019-03-08T03:04:17.083Z,19.23
2019-03-08T03:06:44.031Z,18.10
2019-03-08T03:09:11.053Z,22.07
2019-03-08T03:11:37.993Z,18.50
2019-03-08T03:14:04.934Z,17.67
2019-03-08T03:16:31.890Z,10.07
2019-03-08T03:18:58.838Z,8.67
2019-03-08T03:21:25.796Z,5.77
2019-03-08T03:23:52.730Z,4.03
2019-03-08T03:26:19.696Z,8.50
2019-03-08T03:28:46.610Z,4.33
2019-03-08T03:31:13.505Z,6.20
2019-03-08T03:33:40.429Z,7.80
2019-03-08T03:36:07.394Z,4.40
2019-03-08T03:38:34.330Z,4.17
2019-03-08T03:41:01.352Z,3.37
2019-03-08T03:43:28.341Z,5.50
2019-03-08T03:45:55.293Z,5.73
2019-03-08T03:48:22.264Z,5.27
2019-03-08T03:50:49.235Z,5.43
2019-03-08T03:53:16.197Z,6.67
2019-03-08T03:55:43.209Z,7.40
2019-03-08T03:58:10.189Z,5.40
2019-03-08T04:00:37.210Z,4.67
2019-03-08T04:03:04.232Z,4.93
2019-03-08T04:05:31.187Z,4.27
2019-03-08T04:07:58.130Z,6.83
2019-03-08T04:10:25.099Z,3.83
2019-03-08T04:12:52.020Z,4.33
2019-03-08T04:15:19.103Z,3.57
2019-03-08T04:17:46.050Z,7.53
2019-03-08T04:20:13.484Z,4.50
2019-03-08T04:22:40.440Z,8.43
2019-03-08T04:25:07.448Z,4.63
2019-03-08T04:27:34.411Z,5.07
2019-03-08T04:30:01.394Z,7.23
2019-03-08T04:32:28.341Z,5.03
2019-03-08T04:34:55.317Z,5.47
2019-03-08T04:37:22.292Z,6.23
2019-03-08T04:39:49.239Z,8.30
2019-03-08T04:42:16.194Z,11.40
2019-03-08T04:44:43.102Z,11.50
2019-03-08T04:47:10.038Z,12.93
2019-03-08T04:49:36.950Z,12.43
2019-03-08T04:52:04.069Z,9.97
2019-03-08T04:54:30.987Z,9.07
2019-03-08T04:56:57.967Z,9.93
2019-03-08T04:59:24.928Z,8.37
2019-03-08T05:01:51.918Z,6.50
2019-03-08T05:04:18.867Z,13.53
2019-03-08T05:06:45.814Z,3.47
2019-03-08T05:09:12.778Z,8.90
2019-03-08T05:11:39.733Z,3.60
2019-03-08T05:14:06.653Z,4.97
2019-03-08T05:16:33.605Z,2.93
2019-03-08T05:19:00.591Z,11.90
2019-03-08T05:21:27.513Z,6.00
2019-03-08T05:23:54.447Z,4.27
2019-03-08T05:26:21.387Z,10.07
2019-03-08T05:28:48.380Z,6.90
2019-03-08T05:31:15.323Z,3.97
2019-03-08T05:33:42.266Z,4.97
2019-03-08T05:36:09.214Z,4.47
2019-03-08T05:38:36.168Z,4.67
2019-03-08T05:41:03.110Z,4.40
2019-03-08T05:43:30.090Z,1.87
2019-03-08T05:45:57.042Z,3.70
2019-03-08T05:48:24.000Z,6.83
2019-03-08T05:50:50.967Z,7.67
2019-03-08T05:53:17.890Z,8.97
2019-03-08T05:55:44.816Z,10.43
2019-03-08T05:58:11.751Z,4.73
2019-03-08T06:00:38.689Z,5.33
2019-03-08T06:03:05.647Z,6.13
2019-03-08T06:05:32.578Z,11.60
2019-03-08T06:07:59.539Z,5.87
2019-03-08T06:10:29.663Z,2.90
2019-03-08T06:12:57.325Z,6.47
2019-03-08T06:15:24.281Z,5.27
2019-03-08T06:17:51.239Z,4.33
2019-03-08T06:20:18.162Z,4.27
2019-03-08T06:22:45.127Z,4.80
2019-03-08T06:25:12.109Z,4.10
2019-03-08T06:27:39.056Z,4.27
2019-03-08T06:30:06.086Z,11.93
2019-03-08T06:32:33.048Z,9.07
2019-03-08T06:35:00.024Z,11.63
2019-03-08T06:37:26.984Z,5.23
2019-03-08T06:39:53.976Z,6.00
2019-03-08T06:42:20.928Z,9.13
2019-03-08T06:44:47.888Z,4.07
2019-03-08T06:47:14.839Z,6.37
2019-03-08T06:49:41.809Z,4.63
2019-03-08T06:52:08.783Z,5.53
2019-03-08T06:54:35.771Z,5.70
2019-03-08T06:57:02.719Z,3.97
2019-03-08T06:59:34.527Z,7.57
2019-03-08T07:02:01.546Z,4.00
2019-03-08T07:04:28.510Z,4.37
2019-03-08T07:06:55.485Z,5.17
2019-03-08T07:09:22.451Z,5.97
2019-03-08T07:11:49.640Z,5.87
2019-03-08T07:14:16.679Z,5.63
2019-03-08T07:16:43.635Z,6.30
2019-03-08T07:19:10.606Z,11.20
2019-03-08T07:21:45.878Z,5.43
2019-03-08T07:24:36.517Z,5.40
2019-03-08T07:27:40.523Z,6.27
2019-03-08T07:32:17.565Z,6.97
2019-03-08T07:35:50.351Z,6.57
2019-03-08T07:38:26.867Z,5.00
2019-03-08T07:40:58.440Z,8.27
2019-03-08T07:43:30.863Z,6.20
2019-03-08T07:46:03.541Z,4.37
2019-03-08T07:48:36.434Z,3.67
2019-03-08T07:52:08.860Z,5.80
2019-03-08T07:54:40.474Z,3.53
2019-03-08T07:57:16.964Z,8.07
2019-03-08T07:59:53.662Z,3.83
2019-03-08T08:02:22.150Z,5.03
2019-03-08T08:04:58.668Z,6.10
2019-03-08T08:07:30.278Z,9.77
2019-03-08T08:10:06.744Z,5.83
2019-03-08T08:12:40.283Z,8.50
2019-03-08T08:15:13.325Z,6.90
2019-03-08T08:18:16.179Z,4.90
2019-03-08T08:20:48.589Z,6.20
2019-03-08T08:25:25.125Z,6.57
2019-03-08T08:27:58.543Z,9.33
2019-03-08T08:30:30.938Z,16.00
2019-03-08T08:33:05.538Z,4.77
2019-03-08T08:35:46.232Z,5.37
2019-03-08T08:38:30.938Z,10.53
2019-03-08T08:41:10.418Z,8.00
2019-03-08T08:43:48.946Z,16.23
2019-03-08T08:46:21.219Z,12.20
2019-03-08T08:48:52.794Z,6.73
2019-03-08T08:51:31.334Z,9.30
2019-03-08T08:54:03.818Z,5.93
2019-03-08T08:56:36.237Z,8.07
2019-03-08T08:59:07.920Z,17.13
2019-03-08T09:01:40.724Z,8.90
2019-03-08T09:04:14.276Z,6.90
2019-03-08T09:06:51.764Z,5.87
2019-03-08T09:09:23.389Z,14.57
2019-03-08T09:11:55.852Z,7.13
2019-03-08T09:14:28.934Z,7.43
2019-03-08T09:17:03.493Z,8.53
2019-03-08T09:21:41.882Z,7.57
2019-03-08T09:24:15.377Z,9.27
2019-03-08T09:26:48.047Z,5.70
2019-03-08T09:29:25.788Z,9.27
2019-03-08T09:32:12.424Z,6.70
2019-03-08T09:34:44.331Z,7.63
2019-03-08T09:37:19.956Z,8.90
2019-03-08T09:39:52.664Z,15.47
2019-03-08T09:42:25.879Z,8.00
2019-03-08T09:45:01.393Z,11.77
2019-03-08T09:47:34.065Z,6.97
2019-03-08T09:50:08.835Z,12.27
2019-03-08T09:52:45.482Z,10.93
2019-03-08T09:55:17.430Z,8.47
2019-03-08T09:57:49.182Z,8.87
2019-03-08T10:02:25.001Z,16.40
2019-03-08T10:05:54.937Z,18.87
2019-03-08T10:08:26.763Z,9.27
2019-03-08T10:10:58.532Z,9.53
2019-03-08T10:13:37.062Z,11.90
2019-03-08T10:16:11.693Z,15.17
2019-03-08T10:18:45.414Z,15.13
2019-03-08T10:21:17.050Z,12.47
2019-03-08T10:23:48.817Z,14.33
2019-03-08T10:26:21.288Z,16.83
2019-03-08T10:29:14.188Z,16.27
2019-03-08T10:31:50.574Z,26.30
2019-03-08T10:34:30.275Z,16.23
2019-03-08T10:37:02.968Z,13.53
2019-03-08T10:39:35.502Z,8.43
2019-03-08T10:42:16.116Z,13.97
2019-03-08T10:46:53.085Z,16.33
2019-03-08T10:49:25.158Z,13.47
2019-03-08T10:52:31.392Z,7.70
2019-03-08T10:55:03.110Z,8.13
2019-03-08T10:57:34.778Z,9.10
2019-03-08T11:00:07.700Z,7.37
2019-03-08T11:02:41.102Z,9.27
2019-03-08T11:07:17.368Z,17.73
2019-03-08T11:09:51.403Z,13.07
2019-03-08T11:13:25.845Z,8.73
2019-03-08T11:15:59.427Z,10.73
2019-03-08T11:18:47.063Z,10.40
2019-03-08T11:21:51.640Z,11.03
2019-03-08T11:24:28.221Z,14.33
2019-03-08T11:27:04.965Z,21.90
2019-03-08T11:29:36.731Z,13.20
2019-03-08T11:32:09.711Z,16.13
2019-03-08T11:34:42.511Z,13.37
2019-03-08T11:37:14.175Z,18.07
2019-03-08T11:39:47.912Z,13.30
2019-03-08T11:42:20.476Z,14.57
2019-03-08T11:46:56.115Z,21.47
2019-03-08T11:49:31.567Z,20.60
2019-03-08T11:52:21.361Z,16.93
2019-03-08T11:54:59.907Z,20.00
2019-03-08T11:57:31.571Z,19.27
2019-03-08T12:00:03.365Z,20.67
2019-03-08T12:03:36.547Z,24.30
2019-03-08T12:08:14.135Z,17.07
2019-03-08T12:10:48.017Z,16.47
2019-03-08T12:13:22.458Z,19.13
2019-03-08T12:15:57.342Z,18.43
2019-03-08T12:18:28.933Z,16.13
2019-03-08T12:21:07.024Z,13.47
2019-03-08T12:24:42.216Z,13.37
2019-03-08T12:28:22.469Z,15.13
2019-03-08T12:30:56.074Z,16.97
2019-03-08T12:33:29.564Z,15.93
2019-03-08T12:36:04.184Z,16.60
2019-03-08T12:38:34.929Z,16.47
2019-03-08T12:41:09.145Z,13.87
2019-03-08T12:43:48.462Z,16.13
2019-03-08T12:46:21.263Z,15.20
2019-03-08T12:48:57.968Z,12.30
2019-03-08T12:51:30.497Z,18.43
2019-03-08T12:54:04.075Z,14.40
2019-03-08T12:56:40.653Z,13.57
2019-03-08T12:59:14.435Z,16.83
2019-03-08T13:02:56.940Z,27.50
2019-03-08T13:05:37.727Z,20.67
2019-03-08T13:08:09.373Z,19.37
2019-03-08T13:10:37.979Z,46.13
2019-03-08T13:13:04.976Z,16.90
2019-03-08T13:15:31.948Z,14.40
2019-03-08T13:17:59.201Z,14.07
2019-03-08T13:20:26.355Z,13.73
2019-03-08T13:22:53.660Z,11.60
2019-03-08T13:25:23.548Z,20.83
2019-03-08T13:27:50.692Z,17.63
2019-03-08T13:30:20.226Z,15.43
2019-03-08T13:32:47.912Z,18.77
2019-03-08T13:35:14.615Z,18.43
2019-03-08T13:37:42.048Z,25.37
2019-03-08T13:40:11.133Z,20.67
2019-03-08T13:42:42.022Z,20.97
2019-03-08T13:45:11.532Z,21.90
2019-03-08T13:47:41.439Z,37.30
2019-03-08T13:50:10.141Z,16.70
2019-03-08T13:52:37.358Z,13.80
2019-03-08T13:55:05.571Z,10.43
2019-03-08T13:57:32.760Z,11.77
2019-03-08T13:59:59.752Z,13.43
2019-03-08T14:02:26.730Z,13.13
2019-03-08T14:04:53.930Z,15.23
2019-03-08T14:07:21.129Z,28.93
2019-03-08T14:09:48.128Z,17.33
2019-03-08T14:12:15.304Z,18.93
2019-03-08T14:14:42.270Z,12.17
2019-03-08T14:17:09.326Z,11.93
2019-03-08T14:19:36.324Z,16.17
2019-03-08T14:22:03.435Z,14.90
2019-03-08T14:24:42.575Z,14.03
2019-03-08T14:27:09.834Z,19.73
2019-03-08T14:29:36.836Z,13.10
2019-03-08T14:32:09.587Z,14.37
2019-03-08T14:34:36.586Z,17.47
2019-03-08T14:37:03.625Z,10.43
2019-03-08T14:39:31.226Z,21.07
2019-03-08T14:42:06.650Z,14.30
2019-03-08T14:45:44.528Z,13.00
2019-03-08T14:48:09.620Z,18.40
2019-03-08T14:50:35.606Z,13.80
2019-03-08T14:53:01.621Z,15.90
2019-03-08T14:55:28.625Z,18.53
2019-03-08T14:57:58.998Z,18.67
2019-03-08T15:00:25.405Z,13.47
2019-03-08T15:02:50.535Z,17.20
2019-03-08T15:05:19.230Z,13.60
2019-03-08T15:07:44.541Z,11.67
2019-03-08T15:10:15.592Z,12.80
2019-03-08T15:12:48.976Z,13.80
2019-03-08T15:15:11.240Z,25.90
2019-03-08T15:17:36.939Z,10.33
2019-03-08T15:20:04.397Z,19.03
2019-03-08T15:22:34.031Z,22.10
2019-03-08T15:24:58.407Z,21.63
2019-03-08T15:27:25.374Z,12.70
2019-03-08T15:29:54.818Z,9.63
2019-03-08T15:32:21.132Z,23.10
2019-03-08T15:34:48.096Z,13.23
2019-03-08T15:37:15.365Z,14.30
2019-03-08T15:39:42.312Z,8.03
2019-03-08T15:42:09.255Z,14.30
2019-03-08T15:44:36.317Z,10.80
2019-03-08T15:47:03.468Z,16.63
2019-03-08T15:49:31.538Z,14.03
2019-03-08T15:51:59.871Z,18.43
2019-03-08T15:54:25.759Z,20.57
2019-03-08T15:56:53.419Z,13.73
2019-03-08T15:59:20.443Z,13.23
2019-03-08T16:01:47.491Z,12.00
2019-03-08T16:04:14.480Z,14.83
2019-03-08T16:06:44.085Z,12.70
2019-03-08T16:09:08.428Z,13.77
2019-03-08T16:11:35.408Z,9.63
2019-03-08T16:14:08.691Z,11.30
2019-03-08T16:16:29.536Z,15.80
2019-03-08T16:18:57.088Z,11.00
2019-03-08T16:21:24.898Z,20.67
2019-03-08T16:23:51.810Z,24.13
2019-03-08T16:26:21.302Z,14.83
2019-03-08T16:28:45.676Z,17.80
2019-03-08T16:31:21.677Z,10.80
2019-03-08T16:33:48.402Z,11.03
2019-03-08T16:36:21.002Z,16.03
2019-03-08T16:38:52.583Z,15.77
2019-03-08T16:42:26.912Z,12.97
2019-03-08T16:45:04.475Z,14.17
2019-03-08T16:47:42.657Z,18.43
2019-03-08T16:50:18.060Z,15.63
2019-03-08T16:52:52.548Z,14.93
2019-03-08T16:55:24.355Z,20.83
2019-03-08T16:57:56.802Z,12.57
2019-03-08T17:00:32.338Z,15.30
2019-03-08T17:03:03.889Z,18.93
2019-03-08T17:05:36.550Z,16.10
2019-03-08T17:08:09.197Z,15.23
2019-03-08T17:10:40.779Z,19.10
2019-03-08T17:13:16.149Z,14.10
2019-03-08T17:17:52.083Z,24.43
2019-03-08T17:20:24.585Z,26.53
2019-03-08T17:22:59.222Z,14.07
2019-03-08T17:25:36.772Z,19.43
2019-03-08T17:28:10.031Z,13.90
2019-03-08T17:30:42.713Z,14.77
2019-03-08T17:33:21.312Z,13.30
2019-03-08T17:35:54.138Z,12.60
2019-03-08T17:38:29.734Z,16.77
2019-03-08T17:41:04.390Z,15.47
2019-03-08T17:43:40.094Z,11.00
2019-03-08T17:46:12.721Z,16.50
2019-03-08T17:48:44.934Z,14.63
2019-03-08T17:51:16.596Z,13.23
2019-03-08T17:53:53.033Z,16.53
2019-03-08T17:56:25.805Z,15.03
2019-03-08T17:58:58.216Z,12.03
2019-03-08T18:01:32.685Z,15.47
2019-03-08T18:04:04.305Z,16.60
2019-03-08T18:06:38.827Z,16.10
2019-03-08T18:09:12.330Z,18.43
2019-03-08T18:11:44.598Z,13.67
2019-03-08T18:14:16.212Z,10.60
2019-03-08T18:16:47.895Z,14.37
2019-03-08T18:19:26.123Z,17.90
2019-03-08T18:22:00.655Z,17.80
2019-03-08T18:24:38.027Z,16.03
2019-03-08T18:27:10.717Z,13.77
2019-03-08T18:29:43.520Z,13.60
2019-03-08T18:32:16.377Z,16.60
2019-03-08T18:34:49.138Z,12.47
2019-03-08T18:37:22.784Z,15.13
2019-03-08T18:39:57.197Z,9.93
2019-03-08T18:42:30.803Z,14.27
2019-03-08T18:45:03.491Z,23.60
2019-03-08T18:48:36.857Z,19.43
2019-03-08T18:51:09.400Z,16.60
2019-03-08T18:53:40.977Z,19.70
2019-03-08T18:56:18.345Z,22.27
2019-03-08T18:58:51.131Z,20.17
2019-03-08T19:01:24.405Z,18.03
2019-03-08T19:03:59.875Z,28.00
2019-03-08T19:06:32.432Z,22.60
2019-03-08T19:09:04.013Z,21.73
2019-03-08T19:11:43.452Z,15.97
2019-03-08T19:14:15.962Z,16.00
2019-03-08T19:16:51.523Z,13.63
2019-03-08T19:19:23.126Z,12.33
2019-03-08T19:21:54.697Z,15.07
2019-03-08T19:24:26.306Z,15.23
2019-03-08T19:27:13.390Z,15.83
2019-03-08T19:29:47.932Z,22.80
2019-03-08T19:32:21.435Z,19.10
2019-03-08T19:34:55.950Z,17.73
2019-03-08T19:37:28.747Z,18.50
2019-03-08T19:40:04.229Z,12.63
2019-03-08T19:42:37.071Z,21.47
2019-03-08T19:45:45.705Z,18.20
2019-03-08T19:48:17.314Z,21.53
2019-03-08T19:50:49.727Z,21.10
2019-03-08T19:53:22.146Z,13.90
2019-03-08T19:55:54.607Z,15.70
2019-03-08T19:58:27.992Z,14.20
2019-03-08T20:01:00.675Z,15.63
2019-03-08T20:03:32.265Z,16.83
2019-03-08T20:06:06.760Z,15.30
2019-03-08T20:08:40.260Z,8.90
2019-03-08T20:11:31.090Z,13.73
2019-03-08T20:14:02.683Z,18.40
2019-03-08T20:16:34.309Z,16.30
2019-03-08T20:21:11.416Z,14.10
2019-03-08T20:23:44.925Z,13.83
2019-03-08T20:26:21.493Z,18.10
2019-03-08T20:31:01.326Z,14.90
2019-03-08T20:33:36.383Z,15.57
2019-03-08T20:36:09.828Z,13.73
2019-03-08T20:38:52.411Z,18.67
2019-03-08T20:41:59.701Z,25.13
2019-03-08T20:44:31.250Z,19.97
2019-03-08T20:47:06.010Z,37.67
2019-03-08T20:49:32.981Z,27.53
2019-03-08T20:51:59.979Z,24.80
2019-03-08T20:54:28.755Z,18.57
2019-03-08T20:56:55.704Z,20.40
2019-03-08T20:59:22.624Z,19.63
2019-03-08T21:01:49.583Z,20.00
2019-03-08T21:04:16.535Z,18.47
2019-03-08T21:06:43.505Z,19.43
2019-03-08T21:09:10.538Z,18.80
2019-03-08T21:11:37.621Z,16.60
2019-03-08T21:14:04.653Z,13.23
2019-03-08T21:16:31.654Z,19.17
2019-03-08T21:18:58.739Z,17.13
2019-03-08T21:21:25.799Z,15.03
2019-03-08T21:23:52.728Z,19.27
2019-03-08T21:26:19.707Z,19.13
2019-03-08T21:28:46.893Z,18.73
2019-03-08T21:31:13.938Z,15.80
2019-03-08T21:33:40.949Z,27.00
2019-03-08T21:36:08.667Z,20.03
2019-03-08T21:38:35.633Z,16.40
2019-03-08T21:41:02.648Z,15.50
2019-03-08T21:43:29.596Z,15.80
2019-03-08T21:45:56.561Z,16.47
2019-03-08T21:48:23.553Z,28.77
2019-03-08T21:50:50.683Z,15.63
2019-03-08T21:53:17.634Z,11.03
2019-03-08T21:55:46.724Z,18.40
2019-03-08T21:58:13.694Z,11.77
2019-03-08T22:00:40.679Z,12.10
2019-03-08T22:03:07.635Z,12.03
2019-03-08T22:05:36.100Z,18.27
2019-03-08T22:08:03.678Z,11.37
2019-03-08T22:10:41.667Z,15.27
2019-03-08T22:13:08.666Z,17.07
2019-03-08T22:15:35.656Z,12.93
2019-03-08T22:18:02.673Z,17.60
2019-03-08T22:20:29.593Z,10.97
2019-03-08T22:22:56.621Z,16.03
2019-03-08T22:25:23.603Z,17.87
2019-03-08T22:27:50.605Z,18.13
2019-03-08T22:30:17.601Z,15.87
2019-03-08T22:32:44.628Z,20.97
2019-03-08T22:35:11.618Z,14.40
2019-03-08T22:37:38.573Z,17.40
2019-03-08T22:40:05.661Z,15.93
2019-03-08T22:42:32.605Z,12.77
2019-03-08T22:44:59.579Z,14.27
2019-03-08T22:47:26.516Z,10.17
2019-03-08T22:49:53.504Z,15.60
2019-03-08T22:52:20.480Z,13.10
2019-03-08T22:54:47.427Z,15.27
2019-03-08T22:57:14.420Z,12.23
2019-03-08T22:59:41.365Z,16.63
2019-03-08T23:02:09.109Z,14.07
2019-03-08T23:04:36.095Z,11.93
2019-03-08T23:07:03.174Z,15.27
2019-03-08T23:09:30.222Z,17.23
2019-03-08T23:11:57.171Z,14.40
2019-03-08T23:14:24.095Z,7.67
2019-03-08T23:16:51.059Z,16.17
2019-03-08T23:19:18.016Z,8.10
2019-03-08T23:21:44.970Z,13.70
2019-03-08T23:24:11.889Z,9.80
2019-03-08T23:26:44.581Z,14.00
2019-03-08T23:29:16.177Z,13.17
2019-03-08T23:31:48.529Z,12.87
2019-03-08T23:34:15.472Z,14.07
2019-03-08T23:36:42.411Z,11.73
2019-03-08T23:39:09.414Z,12.27
2019-03-08T23:41:36.375Z,12.97
2019-03-08T23:44:03.321Z,14.23
2019-03-08T23:46:30.301Z,10.87
2019-03-08T23:48:57.263Z,11.70
2019-03-08T23:51:24.572Z,10.43
2019-03-08T23:53:51.518Z,11.67
2019-03-08T23:56:18.513Z,11.00
2019-03-08T23:58:45.504Z,16.37
